Time;durP1;ratioP1;P1;durP2;ratioP2;P2;SDS_P1;SDS_P2;PMS_P1;PMS_P2;Temp;Humidity;BMP_temperature;BMP_pressure;BME280_temperature;BME280_humidity;BME280_pressure;Samples;Min_cycle;Max_cycle;Signal;HPM_P1;HPM_P2
2020/12/23 08:30:49;;;;;;;2.03;1.00;;;20.50;59.10;;;;;;10608838;27;20545;-50
2020/12/23 08:36:10;;;;;;;2.57;1.17;;;20.70;59.50;;;;;;10604964;28;20194;-51
2020/12/23 08:41:33;;;;;;;1.73;0.93;;;20.70;58.80;;;;;;10588732;27;61328;-49
2020/12/23 08:46:55;;;;;;;2.87;1.27;;;20.70;60.10;;;;;;10547392;28;20223;-51
2020/12/23 08:52:18;;;;;;;1.17;1.07;;;20.80;59.00;;;;;;10562227;28;20191;-53
2020/12/23 08:57:40;;;;;;;2.20;1.20;;;20.80;58.50;;;;;;10563590;28;20222;-50
2020/12/23 09:03:03;;;;;;;3.63;1.40;;;21.00;58.20;;;;;;10563519;28;20203;-49
2020/12/23 09:08:26;;;;;;;2.40;1.30;;;21.00;57.40;;;;;;10559067;28;20223;-51
2020/12/23 09:13:48;;;;;;;1.90;1.27;;;21.00;58.20;;;;;;10552495;28;20280;-50
2020/12/23 09:19:10;;;;;;;5.73;1.37;;;21.00;58.90;;;;;;10563131;28;20701;-50
2020/12/23 09:24:32;;;;;;;4.43;1.20;;;21.00;57.60;;;;;;10564684;28;20196;-50
2020/12/23 09:29:53;;;;;;;3.17;1.33;;;21.00;57.70;;;;;;10520380;28;20219;-54
2020/12/23 09:35:17;;;;;;;2.63;1.03;;;21.00;57.20;;;;;;10588672;28;20757;-52
2020/12/23 09:40:40;;;;;;;2.33;1.40;;;21.00;57.20;;;;;;10585060;28;20210;-59
2020/12/23 09:51:28;;;;;;;2.77;1.50;;;21.10;57.30;;;;;;20864162;27;67392;-59
2020/12/23 10:01:49;;;;;;;2.20;1.10;;;21.20;57.00;;;;;;20911878;28;20218;-55
2020/12/23 10:12:11;;;;;;;1.27;1.10;;;21.20;56.80;;;;;;20764286;28;20210;-53
2020/12/23 10:22:31;;;;;;;1.33;1.03;;;21.30;56.70;;;;;;20833093;28;20716;-54
2020/12/23 10:32:53;;;;;;;1.23;1.07;;;21.30;56.40;;;;;;20850288;28;20221;-53
2020/12/23 10:43:14;;;;;;;1.37;1.07;;;21.10;57.50;;;;;;20774797;28;20237;-55
2020/12/23 10:53:36;;;;;;;1.00;0.90;;;21.20;57.50;;;;;;20806921;28;20225;-52
2020/12/23 11:03:56;;;;;;;1.10;1.00;;;21.20;58.40;;;;;;20816240;28;20222;-53
2020/12/23 11:14:18;;;;;;;1.30;1.03;;;21.20;57.60;;;;;;20732815;28;20217;-52
2020/12/23 11:24:39;;;;;;;1.50;1.20;;;21.20;57.70;;;;;;20749931;28;20226;-52
2020/12/23 11:35:00;;;;;;;1.23;0.90;;;21.30;57.50;;;;;;20762104;28;20222;-50
2020/12/23 11:45:21;;;;;;;2.43;1.07;;;21.30;57.30;;;;;;20792492;28;20220;-54
2020/12/23 11:55:43;;;;;;;3.70;1.60;;;21.30;57.90;;;;;;20726193;28;20218;-53
2020/12/23 12:06:03;;;;;;;6.37;1.63;;;21.10;57.70;;;;;;20754967;28;20228;-55
2020/12/23 12:16:25;;;;;;;4.63;2.50;;;20.90;58.50;;;;;;20755624;28;20210;-52
2020/12/23 12:26:46;;;;;;;9.33;5.43;;;21.30;57.70;;;;;;20761884;28;20681;-57
2020/12/23 12:37:07;;;;;;;19.20;7.70;;;21.20;58.10;;;;;;20763973;28;20220;-52
2020/12/23 12:47:28;;;;;;;13.17;8.13;;;21.00;58.40;;;;;;20715691;28;20693;-49
2020/12/23 12:57:49;;;;;;;13.90;7.83;;;21.20;57.80;;;;;;20747982;28;20218;-39
2020/12/23 13:08:12;;;;;;;13.90;7.60;;;21.40;57.60;;;;;;20777660;28;20645;-54
2020/12/23 13:18:36;;;;;;;13.53;7.17;;;21.40;57.40;;;;;;20774204;28;20221;-54
2020/12/23 13:28:57;;;;;;;10.80;6.00;;;21.40;58.10;;;;;;20786449;28;20753;-55
2020/12/23 13:39:18;;;;;;;12.17;6.50;;;21.50;57.50;;;;;;20754481;28;20214;-53
2020/12/23 13:49:39;;;;;;;11.97;6.63;;;21.50;57.20;;;;;;20724810;28;20227;-53
2020/12/23 14:00:00;;;;;;;9.87;5.77;;;21.60;57.20;;;;;;20763580;28;20218;-54
2020/12/23 14:10:22;;;;;;;10.80;5.20;;;21.60;57.20;;;;;;20783363;28;20259;-54
2020/12/23 14:20:44;;;;;;;6.90;4.77;;;21.60;57.70;;;;;;20767922;28;20225;-50
2020/12/23 14:31:05;;;;;;;7.73;3.50;;;22.00;56.40;;;;;;20780379;28;20229;-49
2020/12/23 14:41:27;;;;;;;8.97;3.50;;;22.30;57.00;;;;;;20882593;28;20708;-54
2020/12/23 14:51:48;;;;;;;6.83;3.00;;;22.70;55.70;;;;;;20783412;28;20248;-56
2020/12/23 15:02:09;;;;;;;6.53;3.07;;;23.00;55.30;;;;;;20789747;28;20222;-56
2020/12/23 15:12:30;;;;;;;4.90;2.90;;;23.20;55.60;;;;;;20716395;28;20210;-61
2020/12/23 15:22:52;;;;;;;5.53;2.63;;;23.40;55.00;;;;;;20732309;28;20227;-54
2020/12/23 15:33:12;;;;;;;3.63;2.27;;;23.00;57.00;;;;;;20735448;28;20214;-55
2020/12/23 15:43:34;;;;;;;3.67;2.10;;;23.00;56.70;;;;;;20758249;28;20225;-54
2020/12/23 15:53:55;;;;;;;3.77;2.13;;;22.90;56.70;;;;;;20775000;28;20214;-54
2020/12/23 16:04:17;;;;;;;4.13;2.10;;;22.90;56.30;;;;;;20757957;28;20226;-57
2020/12/23 16:14:38;;;;;;;2.10;1.47;;;23.00;57.90;;;;;;20738240;28;20229;-55
2020/12/23 16:24:59;;;;;;;5.23;2.03;;;23.30;57.00;;;;;;20725648;28;20226;-52
2020/12/23 16:35:20;;;;;;;3.93;1.97;;;23.30;56.50;;;;;;20780829;28;20583;-49
2020/12/23 16:45:42;;;;;;;2.97;1.60;;;23.30;56.70;;;;;;20775239;28;20218;-50
2020/12/23 16:56:06;;;;;;;3.50;1.70;;;23.30;55.80;;;;;;20777392;28;20225;-55
2020/12/23 17:06:27;;;;;;;3.50;1.50;;;23.30;55.50;;;;;;20754165;28;20222;-51
2020/12/23 17:16:49;;;;;;;3.43;2.00;;;23.30;54.70;;;;;;20756123;28;20281;-53
2020/12/23 17:27:11;;;;;;;2.33;1.73;;;23.40;55.40;;;;;;20764675;28;20225;-55
2020/12/23 17:37:32;;;;;;;1.87;1.43;;;23.50;55.50;;;;;;20755322;28;20240;-53
2020/12/23 17:47:53;;;;;;;2.10;1.67;;;23.00;54.00;;;;;;20738554;28;20222;-55
2020/12/23 17:58:14;;;;;;;5.87;3.40;;;22.60;55.00;;;;;;20745697;28;20986;-52
2020/12/23 18:08:36;;;;;;;30.17;17.80;;;22.60;56.50;;;;;;20761569;28;20233;-52
2020/12/23 18:18:57;;;;;;;35.10;21.63;;;22.60;56.30;;;;;;20790686;28;20225;-51
2020/12/23 18:29:18;;;;;;;37.17;22.67;;;22.60;56.50;;;;;;20798677;28;20225;-55
2020/12/23 18:39:39;;;;;;;32.40;19.70;;;22.60;56.30;;;;;;20803491;28;20637;-54
2020/12/23 18:50:01;;;;;;;28.87;16.53;;;22.60;56.40;;;;;;20793722;28;20233;-53
2020/12/23 19:00:23;;;;;;;22.37;14.70;;;22.60;56.30;;;;;;20798896;28;20214;-52
2020/12/23 19:10:45;;;;;;;20.43;13.93;;;22.60;56.10;;;;;;20780616;28;20770;-52
2020/12/23 19:21:05;;;;;;;19.17;11.50;;;22.70;56.10;;;;;;20748704;28;20213;-56
2020/12/23 19:31:31;;;;;;;20.27;11.27;;;22.60;56.10;;;;;;20779810;28;20240;-54
